Latest Weather Observations for The Monument

IDQ60801

Issued at 6:51 pm EST Wednesday 19 September 2018 (issued every 10 minutes, with the page automatically refreshed every 10 minutes)

About weather observations | Map of weather stations | Latest weather observations for QLD | Other Formats
Station Details ID: 037034 Name: THE MONUMENT AIRPORT Lat: -21.81 Lon: 139.93 Height: 288.4 m
Data from the previous 72 hours. | See also: Recent months at The Monument
Date/Time
EST
Temp
°C
App
Temp
°C
Dew
Point
°C
Rel
Hum
%
Delta-T
°C
Wind Press
QNH
hPa
Press
MSL
hPa
Rain since
9am
mm
Dir  Spd
km/h
Gust
km/h
Spd
kts
Gust
kts
19/06:30pm 26.5 19.9 -3.1 14 13.2 S 22 33 12 18 1015.7 1014.5 -
19/06:00pm 27.5 20.5 -3.3 13 13.8 S 24 33 13 18 1015.4 1014.2 -
19/05:30pm 28.6 22.0 -3.6 12 14.5 S 22 32 12 17 1015.0 1013.8 -
19/05:00pm 29.4 22.8 -2.9 12 14.8 S 22 33 12 18 1014.7 1013.4 -
19/04:30pm 29.8 23.5 -3.8 11 15.2 S 20 28 11 15 1014.6 1013.3 -
19/04:00pm 29.5 23.4 -4.0 11 15.1 S 19 28 10 15 1014.6 1013.3 -
19/03:30pm 29.6 23.4 -2.8 12 14.9 SSW 20 28 11 15 1014.5 1013.2 -
19/03:00pm 30.2 24.1 -2.3 12 15.1 SSW 20 30 11 16 1014.8 1013.6 -
19/02:30pm 29.1 23.1 -3.2 12 14.7 S 19 28 10 15 1015.0 1013.8 -
19/02:00pm 29.3 23.7 -3.0 12 14.8 S 17 26 9 14 1014.9 1013.7 -
19/01:30pm 28.7 23.2 -2.4 13 14.3 S 17 24 9 13 1015.5 1014.3 -
19/01:00pm 28.5 22.6 -2.6 13 14.2 S 19 32 10 17 1016.1 1014.9 -
19/12:30pm 27.1 22.0 -1.7 15 13.2 SSE 15 22 8 12 1016.4 1015.2 -
19/12:00pm 26.3 21.0 -0.7 17 12.5 SE 17 26 9 14 1017.1 1015.8 -
19/11:30am 25.0 19.6 -1.7 17 12.1 S 17 26 9 14 1017.3 1016.0 -
19/11:00am 23.8 17.6 -0.5 20 11.1 S 22 30 12 16 1017.6 1016.3 -
19/10:30am 23.1 17.3 -0.4 21 10.7 S 20 28 11 15 1018.0 1016.8 -
19/10:00am 22.3 16.1 -0.4 22 10.3 S 22 32 12 17 1018.2 1017.0 -
19/09:00am 20.3 13.5 -2.1 22 9.6 SSW 24 32 13 17 1017.8 1016.6 0.0
19/08:30am 19.9 13.0 -3.0 21 9.7 S 24 35 13 19 1017.6 1016.3 0.0
19/08:00am 19.0 12.1 -6.6 17 9.9 S 22 32 12 17 1017.3 1016.0 0.0
19/07:30am 19.1 12.3 -9.0 14 10.4 SSW 20 30 11 16 1016.5 1015.3 0.0
19/07:19am 18.2 11.8 -6.5 18 9.5 SW 19 28 10 15 1016.3 1015.1 0.0
19/07:00am 13.1 9.2 -7.0 24 7.2 W 6 9 3 5 1015.2 1014.0 0.0
19/06:30am 14.1 9.9 -7.9 21 7.9 NW 7 9 4 5 1014.7 1013.4 0.0
19/06:00am 15.5 10.9 -8.0 19 8.5 NW 9 13 5 7 1014.1 1012.8 0.0
19/05:30am 15.8 11.2 -7.7 19 8.6 WNW 9 11 5 6 1013.7 1012.4 0.0
19/05:00am 15.0 10.7 -8.4 19 8.4 NNW 7 9 4 5 1013.2 1011.9 0.0
19/04:30am 16.0 11.4 -8.3 18 8.8 NNW 9 11 5 6 1012.9 1011.7 0.0
19/04:00am 16.3 12.1 -8.0 18 8.9 N 7 11 4 6 1012.7 1011.5 0.0
19/03:30am 16.3 12.1 -7.3 19 8.8 NNE 7 9 4 5 1012.8 1011.6 0.0
19/03:00am 15.3 11.1 -7.5 20 8.3 NE 7 9 4 5 1012.8 1011.6 0.0
19/02:30am 15.2 10.6 -7.6 20 8.3 NNE 9 11 5 6 1013.2 1011.9 0.0
19/02:11am 16.0 12.0 -7.6 19 8.7 NNE 6 7 3 4 1013.4 1012.1 0.0
19/02:00am 16.3 12.1 -7.3 19 8.8 NNE 7 7 4 4 1013.5 1012.2 0.0
19/01:52am 15.4 11.2 -7.4 20 8.4 NNE 7 9 4 5 1013.6 1012.3 0.0
19/01:30am 16.1 11.5 -7.5 19 8.7 N 9 9 5 5 1013.9 1012.6 0.0
19/01:00am 15.8 11.6 -7.7 19 8.6 N 7 9 4 5 1014.1 1012.8 0.0
19/12:30am 16.1 12.0 -8.2 18 8.8 NNW 6 7 3 4 1014.2 1012.9 0.0
19/12:00am 16.5 12.2 -8.6 17 9.1 NW 7 7 4 4 1014.4 1013.1 0.0
 
Date/Time
EST
Temp
°C
App
Temp
°C
Dew
Point
°C
Rel
Hum
%
Delta-T
°C
Wind Press
QNH
hPa
Press
MSL
hPa
Rain since
9am
mm
Dir  Spd
km/h
Gust
km/h
Spd
kts
Gust
kts
18/11:30pm 18.2 15.2 -8.8 15 9.9 CALM 0 0 0 0 1014.5 1013.2 0.0
18/11:00pm 19.2 16.3 -8.0 15 10.3 CALM 0 0 0 0 1014.5 1013.2 0.0
18/10:30pm 18.9 16.0 -8.3 15 10.2 CALM 0 6 0 3 1014.4 1013.1 0.0
18/10:00pm 19.0 14.9 -8.2 15 10.2 NE 6 7 3 4 1014.3 1013.0 0.0
18/09:30pm 18.6 14.6 -7.7 16 10.0 E 6 7 3 4 1014.4 1013.1 0.0
18/09:00pm 20.7 17.8 -7.7 14 11.0 CALM 0 0 0 0 1014.3 1013.0 0.0
18/08:30pm 21.5 17.5 -8.0 13 11.4 ESE 6 7 3 4 1014.0 1012.7 0.0
18/08:00pm 23.5 18.9 -7.5 12 12.4 ESE 9 11 5 6 1013.7 1012.4 0.0
18/07:30pm 24.4 19.8 -7.9 11 12.9 ESE 9 9 5 5 1013.4 1012.1 0.0
18/07:00pm 26.7 22.7 -7.4 10 14.1 SE 6 7 3 4 1013.2 1011.9 0.0
18/06:30pm 28.8 24.6 -7.2 9 15.2 SSE 7 11 4 6 1012.8 1011.6 0.0
18/06:00pm 31.0 26.1 -7.1 8 16.5 S 11 17 6 9 1012.7 1011.5 0.0
18/05:30pm 32.1 26.5 -6.3 8 17.0 SW 15 22 8 12 1012.5 1011.3 0.0
18/05:00pm 32.3 26.7 -6.1 8 17.0 SW 15 26 8 14 1012.3 1011.1 0.0
18/04:30pm 33.3 27.8 -5.4 8 17.5 WSW 15 30 8 16 1012.3 1011.1 0.0
18/04:00pm 32.8 27.6 -5.7 8 17.3 SW 13 20 7 11 1012.4 1011.2 0.0
18/03:30pm 32.6 27.7 -7.6 7 17.4 WSW 11 20 6 11 1012.6 1011.4 0.0
18/03:00pm 32.4 27.8 -7.8 7 17.4 SW 9 17 5 9 1012.9 1011.7 0.0
18/02:30pm 32.8 27.5 -7.5 7 17.5 SW 13 19 7 10 1013.3 1012.0 0.0
18/02:00pm 31.9 27.3 -8.1 7 17.1 SE 9 13 5 7 1013.7 1012.4 0.0
18/01:30pm 31.6 26.4 -10.3 6 17.2 NNW 11 17 6 9 1014.3 1013.0 0.0
18/01:00pm 31.7 26.5 -10.2 6 17.3 N 11 20 6 11 1014.7 1013.4 0.0
18/12:30pm 30.7 26.0 -9.0 7 16.5 N 9 17 5 9 1015.3 1014.1 0.0
18/12:00pm 30.5 25.0 -9.1 7 16.4 NNW 13 20 7 11 1016.1 1014.9 0.0
18/11:30am 29.7 23.8 -9.7 7 16.1 NW 15 20 8 11 1016.6 1015.4 0.0
18/11:00am 28.1 22.6 -9.2 8 15.1 N 13 20 7 11 1017.4 1016.1 0.0
18/10:30am 27.6 21.7 -9.6 8 14.9 NNE 15 22 8 12 1017.5 1016.2 0.0
18/10:00am 25.9 19.3 -9.4 9 13.9 NE 19 24 10 13 1017.6 1016.3 0.0
18/09:30am 25.1 19.7 -8.6 10 13.4 ENE 13 17 7 9 1017.9 1016.7 0.0
18/09:00am 23.5 17.6 -9.8 10 12.7 NE 15 20 8 11 1017.6 1016.3 0.0
18/08:30am 21.9 16.4 -9.9 11 11.9 ENE 13 17 7 9 1017.7 1016.4 0.0
18/08:00am 17.6 13.3 -8.5 16 9.6 NNE 7 9 4 5 1017.4 1016.1 0.0
18/07:30am 12.6 8.4 -9.7 20 7.5 N 6 9 3 5 1017.2 1015.9 0.0
18/07:00am 9.7 5.3 -10.4 23 6.4 NNE 7 9 4 5 1016.8 1015.5 0.0
18/06:30am 8.4 3.6 -11.0 24 6.0 N 9 11 5 6 1016.6 1015.4 0.0
18/06:00am 8.9 4.1 -11.1 23 6.2 NNE 9 11 5 6 1016.4 1015.2 0.0
18/05:30am 7.4 2.9 -11.8 24 5.7 N 7 9 4 5 1016.1 1014.9 0.0
18/05:00am 10.3 5.4 -11.6 20 6.8 W 9 11 5 6 1016.4 1015.2 0.0
18/04:30am 10.0 5.1 -11.3 21 6.7 WSW 9 13 5 7 1016.1 1014.9 0.0
18/04:00am 9.2 4.9 -11.4 22 6.4 NNE 6 9 3 5 1015.5 1014.3 0.0
18/03:30am 10.3 5.5 -10.5 22 6.7 NE 9 11 5 6 1015.3 1014.1 0.0
18/03:00am 9.0 4.5 -11.0 23 6.2 NNE 7 9 4 5 1015.7 1014.5 0.0
18/02:30am 9.4 5.1 -11.2 22 6.4 NNE 6 9 3 5 1016.0 1014.8 0.0
18/02:00am 8.7 5.5 -11.8 22 6.2 CALM 0 0 0 0 1016.3 1015.1 0.0
18/01:30am 10.5 7.4 -10.9 21 6.8 CALM 0 0 0 0 1016.5 1015.3 0.0
18/01:00am 11.7 8.6 -11.1 19 7.3 CALM 0 0 0 0 1016.8 1015.5 0.0
18/12:30am 12.1 7.8 -10.8 19 7.5 ESE 6 9 3 5 1016.8 1015.5 0.0
18/12:00am 11.1 7.9 -11.6 19 7.2 CALM 0 0 0 0 1017.0 1015.7 0.0
 
Date/Time
EST
Temp
°C
App
Temp
°C
Dew
Point
°C
Rel
Hum
%
Delta-T
°C
Wind Press
QNH
hPa
Press
MSL
hPa
Rain since
9am
mm
Dir  Spd
km/h
Gust
km/h
Spd
kts
Gust
kts
17/11:30pm 12.3 7.9 -10.0 20 7.4 SE 7 11 4 6 1017.0 1015.7 0.0
17/11:00pm 12.1 7.3 -10.1 20 7.4 ESE 9 9 5 5 1017.1 1015.8 0.0
17/10:30pm 12.7 8.3 -10.3 19 7.7 ESE 7 9 4 5 1017.2 1015.9 0.0
17/10:00pm 13.4 10.3 -11.1 17 8.1 CALM 0 0 0 0 1017.1 1015.8 0.0
17/09:30pm 13.9 10.0 -11.5 16 8.4 S 4 6 2 3 1017.0 1015.7 0.0
17/09:00pm 16.3 12.0 -11.2 14 9.4 SSW 6 9 3 5 1016.6 1015.4 0.0
17/08:30pm 16.2 11.9 -12.2 13 9.5 SSE 6 7 3 4 1016.3 1015.1 0.0
17/08:00pm 18.0 13.5 -11.8 12 10.3 SSE 7 9 4 5 1016.3 1015.1 0.0
17/07:30pm 20.5 15.7 -10.9 11 11.4 S 9 11 5 6 1016.1 1014.9 0.0
17/07:00pm 22.6 18.2 -10.5 10 12.4 S 7 9 4 5 1015.9 1014.7 0.0
17/06:30pm 24.0 19.7 -10.8 9 13.1 SSE 6 9 3 5 1015.7 1014.5 0.0
17/06:00pm 25.6 20.8 -11.1 8 14.0 SSE 9 15 5 8 1015.4 1014.2 0.0
17/05:30pm 26.4 21.2 -10.5 8 14.4 S 11 19 6 10 1015.1 1013.9 0.0
17/05:00pm 26.8 21.3 -10.2 8 14.5 S 13 22 7 12 1014.8 1013.6 0.0
17/04:30pm 27.1 21.6 -9.9 8 14.7 SE 13 19 7 10 1014.7 1013.4 0.0
17/04:00pm 27.1 22.0 -9.9 8 14.7 SSE 11 19 6 10 1014.9 1013.7 0.0
17/03:30pm 26.7 21.9 -10.2 8 14.5 SSE 9 17 5 9 1015.1 1013.9 0.0
17/03:00pm 26.3 20.1 -9.1 9 14.1 SSE 17 22 9 12 1015.6 1014.4 0.0
17/02:30pm 25.7 20.2 -9.5 9 13.9 SSE 13 22 7 12 1015.8 1014.6 0.0
17/02:00pm 25.6 21.0 -8.2 10 13.6 ESE 9 19 5 10 1016.3 1015.1 0.0
17/01:30pm 24.7 19.3 -8.9 10 13.2 ESE 13 20 7 11 1017.0 1015.7 0.0
17/01:00pm 24.4 18.6 -9.1 10 13.1 E 15 24 8 13 1017.5 1016.2 0.0
17/12:30pm 23.5 18.1 -8.6 11 12.6 E 13 24 7 13 1018.2 1017.0 0.0
17/12:00pm 22.1 17.0 -9.7 11 12.0 SE 11 22 6 12 1018.8 1017.6 0.0
17/11:30am 21.8 16.4 -8.8 12 11.7 E 13 24 7 13 1019.5 1018.3 0.0
17/11:00am 21.5 15.4 -8.0 13 11.4 ESE 17 28 9 15 1019.9 1018.7 0.0
17/10:30am 20.7 13.6 -8.7 13 11.2 ESE 22 32 12 17 1020.2 1019.0 0.0
17/10:00am 19.8 12.7 -8.4 14 10.6 ESE 22 32 12 17 1020.4 1019.1 0.0
17/09:30am 17.8 10.3 -8.3 16 9.7 ESE 24 32 13 17 1020.5 1019.2 0.0
17/09:00am 16.5 9.8 -8.6 17 9.1 ESE 20 30 11 16 1020.6 1019.3 0.0
17/08:30am 14.6 8.8 -8.1 20 8.1 SE 15 22 8 12 1020.6 1019.3 0.0
17/08:00am 12.1 6.7 -8.9 22 7.1 SE 13 17 7 9 1020.2 1019.0 0.0
17/07:30am 9.0 4.3 -9.4 26 5.9 S 9 11 5 6 1019.9 1018.7 0.0
17/07:00am 6.7 1.6 -9.2 31 5.0 SSW 11 13 6 7 1019.5 1018.3 0.0
17/06:30am 5.0 2.0 -9.9 33 4.5 CALM 0 0 0 0 1019.4 1018.2 0.0
17/06:00am 4.9 1.8 -10.8 31 4.6 CALM 0 4 0 2 1019.2 1018.0 0.0
17/05:30am 6.8 2.4 -10.0 29 5.2 S 7 9 4 5 1018.8 1017.6 0.0
17/05:00am 7.1 4.0 -10.6 27 5.4 CALM 0 0 0 0 1018.7 1017.5 0.0
17/04:30am 7.8 3.4 -10.5 26 5.7 SSE 7 9 4 5 1018.5 1017.3 0.0
17/04:00am 8.9 3.4 -10.0 25 6.0 S 13 17 7 9 1018.3 1017.1 0.0
17/03:30am 9.4 3.9 -9.6 25 6.1 S 13 15 7 8 1018.3 1017.1 0.0
17/03:00am 9.3 4.2 -9.7 25 6.1 SSW 11 13 6 7 1018.4 1017.2 0.0
17/02:30am 9.8 4.7 -9.8 24 6.3 S 11 13 6 7 1018.5 1017.3 0.0
17/02:00am 10.3 4.8 -9.4 24 6.5 S 13 15 7 8 1018.8 1017.6 0.0
17/01:30am 10.7 5.2 -9.6 23 6.7 S 13 15 7 8 1019.2 1018.0 0.0
17/01:00am 11.1 5.6 -9.8 22 6.9 S 13 15 7 8 1019.6 1018.4 0.0
17/12:30am 11.8 6.7 -9.2 22 7.1 S 11 13 6 7 1019.9 1018.7 0.0
17/12:00am 11.9 6.8 -9.7 21 7.2 S 11 13 6 7 1020.0 1018.8 0.0
 
Date/Time
EST
Temp
°C
App
Temp
°C
Dew
Point
°C
Rel
Hum
%
Delta-T
°C
Wind Press
QNH
hPa
Press
MSL
hPa
Rain since
9am
mm
Dir  Spd
km/h
Gust
km/h
Spd
kts
Gust
kts
16/11:30pm 12.2 7.4 -10.1 20 7.4 SSW 9 11 5 6 1020.2 1019.0 0.0
16/11:00pm 13.1 8.4 -9.3 20 7.6 S 9 11 5 6 1020.4 1019.1 0.0
16/10:30pm 13.7 8.2 -9.5 19 8.0 S 13 15 7 8 1020.2 1019.0 0.0
16/10:00pm 14.3 9.2 -9.0 19 8.1 S 11 13 6 7 1020.2 1019.0 0.0
16/09:30pm 15.1 10.0 -9.0 18 8.5 S 11 13 6 7 1020.0 1018.8 0.0
16/09:00pm 16.4 10.9 -9.4 16 9.2 S 13 15 7 8 1019.8 1018.6 0.0
16/08:30pm 17.1 11.7 -8.9 16 9.4 S 13 17 7 9 1019.5 1018.3 0.0
16/08:00pm 18.0 12.2 -9.0 15 9.9 S 15 17 8 9 1019.2 1018.0 0.0
16/07:30pm 18.9 13.1 -9.1 14 10.3 S 15 19 8 10 1018.9 1017.7 0.0
16/07:00pm 19.7 13.5 -9.5 13 10.8 S 17 24 9 13 1018.5 1017.3 0.0

Other Formats:

Comma delimited format used in spreadsheet applications
http://www.bom.gov.au/fwo/IDQ60801/IDQ60801.94336.axf

JavaScript Object Notation format (JSON) in row-major order
http://www.bom.gov.au/fwo/IDQ60801/IDQ60801.94336.json